Time;durP1;ratioP1;P1;durP2;ratioP2;P2;SDS_P1;SDS_P2;PMS_P1;PMS_P2;Temp;Humidity;BMP_temperature;BMP_pressure;BME280_temperature;BME280_humidity;BME280_pressure;Samples;Min_cycle;Max_cycle;Signal;HPM_P1;HPM_P2
2021/06/13 00:01:55;;;;;;;23.00;4.63;;;14.00;99.90;;;;;;6313636;22;20486;-84
2021/06/13 00:04:22;;;;;;;24.03;4.80;;;14.00;99.90;;;;;;6313446;22;20517;-85
2021/06/13 00:06:52;;;;;;;20.93;4.67;;;13.90;99.90;;;;;;6313431;22;20744;-84
2021/06/13 00:09:18;;;;;;;22.80;5.07;;;13.90;99.90;;;;;;6313082;22;20405;-85
2021/06/13 00:11:44;;;;;;;22.27;5.70;;;13.90;99.90;;;;;;6312767;22;20446;-85
2021/06/13 00:14:11;;;;;;;24.07;6.27;;;13.90;99.90;;;;;;6313134;22;20438;-86
2021/06/13 00:16:39;;;;;;;21.00;5.10;;;13.80;99.90;;;;;;6313699;22;21022;-84
2021/06/13 00:19:05;;;;;;;21.77;6.20;;;13.80;99.90;;;;;;6312471;22;20414;-84
2021/06/13 00:21:32;;;;;;;22.90;5.20;;;13.80;99.90;;;;;;6313480;22;20469;-85
2021/06/13 00:23:58;;;;;;;20.50;5.37;;;13.80;99.90;;;;;;6314538;22;20425;-85
2021/06/13 00:26:25;;;;;;;23.07;7.30;;;13.70;99.90;;;;;;6313651;22;20405;-84
2021/06/13 00:28:52;;;;;;;22.37;5.53;;;13.60;99.90;;;;;;6314977;22;20500;-85
2021/06/13 00:31:19;;;;;;;19.47;5.13;;;13.60;99.90;;;;;;6313757;22;20511;-84
2021/06/13 00:33:46;;;;;;;19.40;4.60;;;13.60;99.90;;;;;;6314767;22;20512;-84
2021/06/13 00:36:13;;;;;;;19.03;5.57;;;13.60;99.90;;;;;;6314939;22;20410;-84
2021/06/13 00:38:39;;;;;;;20.37;5.30;;;13.50;99.90;;;;;;6314651;22;20488;-84
2021/06/13 00:41:07;;;;;;;18.50;5.40;;;13.50;99.90;;;;;;6313623;22;20531;-84
2021/06/13 00:43:33;;;;;;;22.13;4.93;;;13.40;99.90;;;;;;6314633;22;20479;-85
2021/06/13 00:45:59;;;;;;;19.50;6.13;;;13.40;99.90;;;;;;6316337;22;20406;-86
2021/06/13 00:48:25;;;;;;;17.37;5.50;;;13.40;99.90;;;;;;6315211;22;20540;-86
2021/06/13 00:50:54;;;;;;;16.93;5.37;;;13.30;99.90;;;;;;6315675;22;20528;-85
2021/06/13 00:53:21;;;;;;;19.33;5.47;;;13.30;99.90;;;;;;6313951;22;20440;-85
2021/06/13 00:55:48;;;;;;;18.03;5.70;;;13.30;99.90;;;;;;6314928;22;20459;-86
2021/06/13 00:58:14;;;;;;;16.13;5.33;;;13.30;99.90;;;;;;6315222;22;20410;-85
2021/06/13 01:00:43;;;;;;;18.90;5.43;;;13.30;99.90;;;;;;6312563;22;20778;-85
2021/06/13 01:03:10;;;;;;;19.97;5.97;;;13.20;99.90;;;;;;6314523;22;20437;-86
2021/06/13 01:05:36;;;;;;;25.07;6.80;;;13.20;99.90;;;;;;6314484;22;20728;-85
2021/06/13 01:08:15;;;;;;;14.77;4.83;;;13.20;99.90;;;;;;6314382;22;20408;-84
2021/06/13 01:10:51;;;;;;;19.63;6.67;;;13.20;99.90;;;;;;6313212;22;20434;-85
2021/06/13 01:13:23;;;;;;;19.50;6.30;;;13.10;99.90;;;;;;6313454;22;20501;-85
2021/06/13 01:15:58;;;;;;;20.47;5.20;;;13.10;99.90;;;;;;6313792;22;20390;-85
2021/06/13 01:18:29;;;;;;;18.77;5.23;;;13.10;99.90;;;;;;6313054;22;20390;-84
2021/06/13 01:21:03;;;;;;;17.53;5.47;;;13.00;99.90;;;;;;6317225;22;20386;-84
2021/06/13 01:23:50;;;;;;;19.17;5.47;;;13.00;99.90;;;;;;6323637;22;20430;-84
2021/06/13 01:26:55;;;;;;;16.80;5.37;;;12.90;99.90;;;;;;6314170;22;20469;-84
2021/06/13 01:29:27;;;;;;;16.07;5.90;;;12.90;99.90;;;;;;6308045;22;20418;-84
2021/06/13 01:31:55;;;;;;;19.37;5.73;;;12.90;99.90;;;;;;6313041;22;20771;-85
2021/06/13 01:34:24;;;;;;;17.70;6.10;;;12.80;99.90;;;;;;6312825;22;20440;-84
2021/06/13 01:36:52;;;;;;;15.20;5.23;;;12.80;99.90;;;;;;6313154;22;20489;-85
2021/06/13 01:39:23;;;;;;;12.53;4.87;;;12.80;99.90;;;;;;6312653;22;20433;-85
2021/06/13 01:41:50;;;;;;;15.27;5.90;;;12.80;99.90;;;;;;6313479;22;20397;-85
2021/06/13 01:44:18;;;;;;;14.27;5.30;;;12.80;99.90;;;;;;6312721;22;20430;-85
2021/06/13 01:46:49;;;;;;;15.00;5.60;;;12.80;99.90;;;;;;6313265;22;20410;-84
2021/06/13 01:49:17;;;;;;;16.20;6.00;;;12.70;99.90;;;;;;6313867;22;20390;-84
2021/06/13 01:51:44;;;;;;;16.20;5.87;;;12.70;99.90;;;;;;6312668;22;20442;-85
2021/06/13 01:54:12;;;;;;;17.50;6.27;;;12.60;99.90;;;;;;6314172;22;20463;-84
2021/06/13 01:56:44;;;;;;;14.43;5.87;;;12.70;99.90;;;;;;6313015;22;20418;-84
2021/06/13 01:59:10;;;;;;;18.87;6.73;;;12.60;99.90;;;;;;6313131;22;20391;-84
2021/06/13 02:01:38;;;;;;;17.50;6.73;;;12.60;99.90;;;;;;6313223;22;20402;-84
2021/06/13 02:04:06;;;;;;;15.33;6.00;;;12.50;99.90;;;;;;6313435;22;20443;-84
2021/06/13 02:06:37;;;;;;;16.00;6.77;;;12.50;99.90;;;;;;6313237;22;20433;-84
2021/06/13 02:09:05;;;;;;;14.60;5.67;;;12.50;99.90;;;;;;6313179;22;20442;-84
2021/06/13 02:11:33;;;;;;;18.90;6.97;;;12.50;99.90;;;;;;6313393;22;20503;-84
2021/06/13 02:14:00;;;;;;;17.40;6.80;;;12.50;99.90;;;;;;6312958;22;20434;-84
2021/06/13 02:16:27;;;;;;;17.53;6.57;;;12.40;99.90;;;;;;6313436;22;20406;-84
2021/06/13 02:18:56;;;;;;;15.20;8.00;;;12.40;99.90;;;;;;6312301;22;20531;-84
2021/06/13 02:21:25;;;;;;;17.43;6.50;;;12.40;99.90;;;;;;6312809;22;20406;-84
2021/06/13 02:23:53;;;;;;;16.47;6.60;;;12.30;99.90;;;;;;6313489;22;20436;-84
2021/06/13 02:26:20;;;;;;;14.47;6.03;;;12.30;99.90;;;;;;6312696;22;20439;-84
2021/06/13 02:28:54;;;;;;;13.33;5.27;;;12.30;99.90;;;;;;6313675;22;20437;-84
2021/06/13 02:31:24;;;;;;;14.33;5.80;;;12.30;99.90;;;;;;6312258;22;20426;-84
2021/06/13 02:33:51;;;;;;;15.77;6.50;;;12.20;99.90;;;;;;6312564;22;20797;-83
2021/06/13 02:36:18;;;;;;;14.40;7.20;;;12.20;99.90;;;;;;6312353;22;20496;-84
2021/06/13 02:38:46;;;;;;;12.20;5.77;;;12.10;99.90;;;;;;6311529;22;20410;-84
2021/06/13 02:41:12;;;;;;;15.03;6.20;;;12.10;99.90;;;;;;6312087;22;20409;-83
2021/06/13 02:43:38;;;;;;;18.60;7.07;;;12.00;99.90;;;;;;6311975;22;20430;-84
2021/06/13 02:46:05;;;;;;;17.07;6.17;;;12.00;99.90;;;;;;6312140;22;21132;-84
2021/06/13 02:48:31;;;;;;;15.37;6.23;;;11.90;99.90;;;;;;6311846;22;20405;-83
2021/06/13 02:50:58;;;;;;;17.97;6.63;;;11.90;99.90;;;;;;6312766;22;20442;-83
2021/06/13 02:53:32;;;;;;;16.10;7.10;;;11.90;99.90;;;;;;6312217;22;20437;-83
2021/06/13 02:56:08;;;;;;;16.20;6.23;;;11.90;99.90;;;;;;6312244;22;20394;-83
2021/06/13 02:58:41;;;;;;;13.97;6.70;;;11.90;99.90;;;;;;6311847;22;20415;-83
2021/06/13 03:01:09;;;;;;;14.30;6.23;;;11.80;99.90;;;;;;6312216;22;20382;-83
2021/06/13 03:03:37;;;;;;;16.00;7.50;;;11.80;99.90;;;;;;6311940;22;20754;-83
2021/06/13 03:06:09;;;;;;;14.60;6.67;;;11.80;99.90;;;;;;6313356;22;20496;-83
2021/06/13 03:08:36;;;;;;;12.50;6.90;;;11.80;99.90;;;;;;6312351;22;20686;-83
2021/06/13 03:11:07;;;;;;;14.90;6.70;;;11.80;99.90;;;;;;6328078;22;20516;-83
2021/06/13 03:13:34;;;;;;;17.30;7.60;;;11.80;99.90;;;;;;6318972;22;20480;-83
2021/06/13 03:16:01;;;;;;;13.90;5.40;;;11.80;99.90;;;;;;6314063;22;20406;-84
2021/06/13 03:18:30;;;;;;;15.07;6.00;;;11.80;99.90;;;;;;6312316;22;20409;-83
2021/06/13 03:20:57;;;;;;;16.03;5.90;;;11.70;99.90;;;;;;6313521;22;20457;-85
2021/06/13 03:23:25;;;;;;;14.30;6.20;;;11.70;99.90;;;;;;6311976;22;20492;-84
2021/06/13 03:25:53;;;;;;;14.50;6.20;;;11.70;99.90;;;;;;6312381;22;20433;-83
2021/06/13 03:28:21;;;;;;;18.93;5.53;;;11.70;99.90;;;;;;6315859;22;20412;-85
2021/06/13 03:30:48;;;;;;;14.73;6.67;;;11.60;99.90;;;;;;6316467;22;20526;-84
2021/06/13 03:33:16;;;;;;;13.43;6.10;;;11.70;99.90;;;;;;6317564;22;20426;-84
2021/06/13 03:35:45;;;;;;;15.97;7.40;;;11.70;99.90;;;;;;6315814;22;20462;-84
2021/06/13 03:38:12;;;;;;;12.63;7.07;;;11.60;99.90;;;;;;6314632;22;20510;-83
2021/06/13 03:40:40;;;;;;;13.70;7.37;;;11.70;99.90;;;;;;6316004;22;20647;-84
2021/06/13 03:43:07;;;;;;;11.93;5.47;;;11.70;99.90;;;;;;6319270;22;20483;-83
2021/06/13 03:45:36;;;;;;;13.40;6.70;;;11.70;99.90;;;;;;6316727;22;20424;-83
2021/06/13 03:48:03;;;;;;;19.87;6.70;;;11.80;99.90;;;;;;6312962;22;20406;-83
2021/06/13 03:50:31;;;;;;;13.43;6.00;;;11.70;99.90;;;;;;6312724;22;20445;-84
2021/06/13 03:52:59;;;;;;;15.90;5.40;;;11.70;99.90;;;;;;6314125;22;20500;-83
2021/06/13 03:55:26;;;;;;;13.70;6.63;;;11.80;99.90;;;;;;6314062;22;20460;-84
2021/06/13 03:57:54;;;;;;;14.80;6.40;;;11.80;99.90;;;;;;6313776;22;20398;-84
2021/06/13 04:00:26;;;;;;;15.30;6.60;;;11.80;99.90;;;;;;6314606;22;20429;-83
2021/06/13 04:02:54;;;;;;;14.00;5.27;;;11.80;99.90;;;;;;6314706;22;20779;-84
2021/06/13 04:05:21;;;;;;;12.33;5.83;;;11.80;99.90;;;;;;6314111;22;20413;-83
2021/06/13 04:07:48;;;;;;;13.47;6.57;;;11.90;99.90;;;;;;6314905;22;20410;-83
2021/06/13 04:10:16;;;;;;;15.10;5.37;;;11.90;99.90;;;;;;6313348;22;20412;-84
2021/06/13 04:12:45;;;;;;;16.07;6.30;;;12.00;99.90;;;;;;6313938;22;20496;-83
2021/06/13 04:15:12;;;;;;;10.70;5.77;;;12.00;99.90;;;;;;6313282;22;20462;-84
2021/06/13 04:17:41;;;;;;;14.10;6.97;;;12.10;99.90;;;;;;6314083;22;20516;-84
2021/06/13 04:20:11;;;;;;;11.50;5.23;;;12.10;99.90;;;;;;6314404;22;20442;-83
2021/06/13 04:22:39;;;;;;;14.10;6.83;;;12.10;99.90;;;;;;6314795;22;20430;-83
2021/06/13 04:25:09;;;;;;;11.13;5.80;;;12.20;99.90;;;;;;6315305;22;20410;-84
2021/06/13 04:27:38;;;;;;;21.10;7.93;;;12.20;99.90;;;;;;6314021;22;20453;-81
2021/06/13 04:30:06;;;;;;;12.60;5.90;;;12.30;99.90;;;;;;6313520;22;20422;-81
2021/06/13 04:32:33;;;;;;;12.97;6.30;;;12.30;99.90;;;;;;6313129;22;20488;-81
2021/06/13 04:35:00;;;;;;;16.43;6.77;;;12.40;99.90;;;;;;6313341;22;20489;-82
2021/06/13 04:37:28;;;;;;;14.37;6.87;;;12.50;99.90;;;;;;6313707;22;20425;-81
2021/06/13 04:39:55;;;;;;;13.97;6.00;;;12.50;99.90;;;;;;6313575;22;20487;-81
2021/06/13 04:42:22;;;;;;;15.60;6.10;;;12.60;99.90;;;;;;6313284;22;20406;-81
2021/06/13 04:44:49;;;;;;;13.53;5.73;;;12.70;99.90;;;;;;6312226;22;20402;-82
2021/06/13 04:47:16;;;;;;;11.70;5.43;;;12.80;99.90;;;;;;6314477;22;20416;-81
2021/06/13 04:49:45;;;;;;;11.90;4.80;;;12.80;99.90;;;;;;6311505;22;21250;-81
2021/06/13 04:52:14;;;;;;;13.30;5.17;;;12.90;99.90;;;;;;6313192;22;20441;-82
2021/06/13 04:55:00;;;;;;;12.90;5.53;;;12.90;99.90;;;;;;6313179;22;20483;-81
2021/06/13 04:57:45;;;;;;;13.67;5.13;;;13.00;99.90;;;;;;6312996;22;20870;-82
2021/06/13 05:00:12;;;;;;;11.20;5.17;;;13.10;99.90;;;;;;6314379;22;20480;-81
2021/06/13 05:02:40;;;;;;;13.10;5.27;;;13.20;99.90;;;;;;6313261;22;20424;-82
2021/06/13 05:05:07;;;;;;;17.33;5.90;;;13.30;99.90;;;;;;6313448;22;20477;-81
2021/06/13 05:07:34;;;;;;;16.23;6.10;;;13.30;99.90;;;;;;6313427;22;20448;-81
2021/06/13 05:10:04;;;;;;;12.93;5.40;;;13.40;99.90;;;;;;6313209;22;20437;-81
2021/06/13 05:12:31;;;;;;;19.00;5.60;;;13.40;99.90;;;;;;6313832;22;20437;-82
2021/06/13 05:14:58;;;;;;;13.87;5.33;;;13.50;99.90;;;;;;6311373;22;20460;-83
2021/06/13 05:17:24;;;;;;;14.60;5.47;;;13.60;99.90;;;;;;6315268;22;20982;-81
2021/06/13 05:19:51;;;;;;;13.87;4.50;;;13.60;99.90;;;;;;6312585;22;20473;-81
2021/06/13 05:22:18;;;;;;;13.93;5.53;;;13.70;99.90;;;;;;6313266;22;20478;-81
2021/06/13 05:24:45;;;;;;;15.20;5.13;;;13.80;99.90;;;;;;6312677;22;20513;-81
2021/06/13 05:27:13;;;;;;;14.90;5.10;;;13.90;99.90;;;;;;6312529;22;20433;-81
2021/06/13 05:29:40;;;;;;;12.80;4.93;;;13.90;99.90;;;;;;6311794;22;20509;-80
2021/06/13 05:32:08;;;;;;;10.47;4.43;;;14.00;99.90;;;;;;6313415;22;20509;-82
2021/06/13 05:34:34;;;;;;;12.03;4.83;;;14.10;99.90;;;;;;6313866;22;20450;-81
2021/06/13 05:37:01;;;;;;;13.83;4.93;;;14.20;99.90;;;;;;6312726;22;20434;-81
2021/06/13 05:39:28;;;;;;;14.70;4.80;;;14.20;99.90;;;;;;6312884;22;20477;-81
2021/06/13 05:41:55;;;;;;;16.80;4.30;;;14.30;99.90;;;;;;6314663;22;20496;-80
2021/06/13 05:44:23;;;;;;;13.50;4.83;;;14.30;99.90;;;;;;6313874;22;20820;-81
2021/06/13 05:46:50;;;;;;;14.27;4.67;;;14.40;99.90;;;;;;6313549;22;20417;-81
2021/06/13 05:49:17;;;;;;;12.07;4.10;;;14.50;99.90;;;;;;6313411;22;20410;-83
2021/06/13 05:51:44;;;;;;;17.00;4.50;;;14.50;99.90;;;;;;6313922;22;20444;-82
2021/06/13 05:54:11;;;;;;;15.73;4.20;;;14.50;99.90;;;;;;6315274;22;20812;-83
2021/06/13 05:56:38;;;;;;;18.33;4.27;;;14.60;99.90;;;;;;6312838;22;20970;-83
2021/06/13 05:59:06;;;;;;;16.23;4.80;;;14.60;99.90;;;;;;6310347;22;20448;-83
2021/06/13 06:01:34;;;;;;;15.70;4.93;;;14.70;99.90;;;;;;6311510;22;20417;-83
2021/06/13 06:04:01;;;;;;;20.73;4.90;;;14.80;99.90;;;;;;6310778;22;20508;-83
2021/06/13 06:06:28;;;;;;;15.83;4.67;;;14.90;99.90;;;;;;6311235;22;20437;-82
2021/06/13 06:08:55;;;;;;;14.47;4.50;;;14.90;99.90;;;;;;6310671;22;20981;-82
2021/06/13 06:11:22;;;;;;;12.80;3.50;;;15.00;99.90;;;;;;6311697;22;20438;-82
2021/06/13 06:13:53;;;;;;;15.43;4.30;;;15.00;99.90;;;;;;6310901;22;21042;-83
2021/06/13 06:16:20;;;;;;;13.50;4.47;;;15.00;99.90;;;;;;6311092;22;20490;-82
2021/06/13 06:18:48;;;;;;;13.93;4.10;;;15.10;99.90;;;;;;6311076;22;20414;-83
2021/06/13 06:21:15;;;;;;;15.50;4.10;;;15.20;99.90;;;;;;6310694;22;20424;-83
2021/06/13 06:23:41;;;;;;;12.83;4.40;;;15.20;99.90;;;;;;6310707;22;20457;-83
2021/06/13 06:26:08;;;;;;;14.03;4.50;;;15.30;99.90;;;;;;6311533;22;20506;-83
2021/06/13 06:28:35;;;;;;;17.23;4.30;;;15.40;99.90;;;;;;6311657;22;20444;-83
2021/06/13 06:31:02;;;;;;;17.20;4.50;;;15.40;99.90;;;;;;6310826;22;20400;-83
2021/06/13 06:33:31;;;;;;;14.57;4.50;;;15.50;99.90;;;;;;6311982;22;20426;-83
2021/06/13 06:36:00;;;;;;;12.57;4.13;;;15.50;99.90;;;;;;6313201;22;20410;-83
2021/06/13 06:38:26;;;;;;;19.83;4.43;;;15.70;99.90;;;;;;6311292;22;20437;-84
2021/06/13 06:40:54;;;;;;;17.47;4.97;;;15.60;99.90;;;;;;6312607;22;20398;-84
2021/06/13 06:43:20;;;;;;;15.47;3.90;;;15.70;99.90;;;;;;6310578;22;20512;-83
2021/06/13 06:45:47;;;;;;;12.50;4.33;;;15.60;99.90;;;;;;6312004;22;20441;-83
2021/06/13 06:48:14;;;;;;;15.97;4.13;;;15.80;99.90;;;;;;6311372;22;20494;-83
2021/06/13 06:50:41;;;;;;;14.53;4.20;;;15.90;99.90;;;;;;6311117;22;21058;-83
2021/06/13 06:53:09;;;;;;;20.33;4.07;;;16.00;99.90;;;;;;6311727;22;20445;-82
2021/06/13 06:55:36;;;;;;;17.67;3.50;;;16.10;99.90;;;;;;6310883;22;20426;-83
2021/06/13 06:58:04;;;;;;;16.90;4.43;;;16.20;99.90;;;;;;6311731;22;20988;-83
2021/06/13 07:00:31;;;;;;;18.00;4.00;;;16.20;99.90;;;;;;6311084;22;20441;-84
2021/06/13 07:02:58;;;;;;;26.90;4.20;;;16.20;99.90;;;;;;6312068;22;20484;-84
2021/06/13 07:05:26;;;;;;;23.97;4.10;;;16.40;99.90;;;;;;6310882;22;20512;-84
2021/06/13 07:07:53;;;;;;;26.30;4.57;;;16.40;99.90;;;;;;6310785;22;20496;-83
2021/06/13 07:10:21;;;;;;;34.03;7.70;;;16.50;99.90;;;;;;6312018;22;20444;-84
2021/06/13 07:12:48;;;;;;;72.07;46.93;;;16.60;99.90;;;;;;6311547;22;20525;-83
2021/06/13 07:15:18;;;;;;;93.60;83.00;;;16.60;99.90;;;;;;6310505;22;21011;-83
2021/06/13 07:17:45;;;;;;;1999.90;999.90;;;16.80;99.90;;;;;;6311014;22;20392;-84
2021/06/13 07:20:13;;;;;;;1369.73;690.53;;;16.90;99.90;;;;;;6309828;22;20443;-84
2021/06/13 07:22:41;;;;;;;1999.90;999.90;;;17.00;99.90;;;;;;6312161;22;20429;-84
2021/06/13 07:25:09;;;;;;;225.43;208.40;;;17.00;99.90;;;;;;6310609;22;20461;-82
2021/06/13 07:27:38;;;;;;;1999.90;999.90;;;17.10;99.90;;;;;;6313233;22;20416;-83
2021/06/13 07:30:08;;;;;;;1999.90;999.90;;;17.20;99.90;;;;;;6320250;22;20429;-83
2021/06/13 07:32:35;;;;;;;1999.90;999.90;;;17.30;99.90;;;;;;6319075;22;20444;-83
2021/06/13 07:35:02;;;;;;;1999.90;999.90;;;17.50;99.90;;;;;;6319944;22;20481;-81
2021/06/13 07:37:29;;;;;;;1999.90;999.90;;;17.60;99.90;;;;;;6319070;22;20501;-83
2021/06/13 07:39:56;;;;;;;1999.90;999.90;;;17.70;99.90;;;;;;6318895;22;20422;-83
2021/06/13 07:42:23;;;;;;;1999.90;999.90;;;17.80;99.90;;;;;;6319252;22;20469;-83
2021/06/13 07:44:51;;;;;;;1999.90;999.90;;;17.70;99.90;;;;;;6320828;22;20815;-82
2021/06/13 07:47:19;;;;;;;1999.90;999.90;;;17.90;99.90;;;;;;6320101;22;20448;-83
2021/06/13 07:49:46;;;;;;;1999.90;999.90;;;18.00;99.90;;;;;;6319863;22;21147;-82
2021/06/13 07:52:13;;;;;;;1999.90;999.90;;;18.10;99.90;;;;;;6316162;22;20405;-83
2021/06/13 07:54:40;;;;;;;898.73;842.77;;;18.20;99.90;;;;;;6316181;22;20200;-83
2021/06/13 07:57:08;;;;;;;724.30;681.80;;;18.30;99.90;;;;;;6315417;22;20493;-82
2021/06/13 07:59:36;;;;;;;1127.50;764.63;;;18.40;99.90;;;;;;6315162;22;20620;-83
2021/06/13 08:02:05;;;;;;;287.37;269.83;;;18.50;99.90;;;;;;6310192;22;20417;-84
2021/06/13 08:04:36;;;;;;;1999.90;999.90;;;18.40;99.90;;;;;;6312259;22;20434;-84
2021/06/13 08:07:03;;;;;;;62.47;20.27;;;18.60;99.90;;;;;;6315695;22;20441;-83
2021/06/13 08:09:30;;;;;;;498.80;472.13;;;18.60;99.90;;;;;;6314638;22;20496;-83
2021/06/13 08:11:57;;;;;;;847.17;796.43;;;18.90;99.90;;;;;;6313027;22;20438;-83
2021/06/13 08:14:24;;;;;;;808.30;758.80;;;19.00;99.90;;;;;;6314227;22;20525;-84
2021/06/13 08:16:53;;;;;;;39.10;5.20;;;19.10;99.90;;;;;;6312663;22;20397;-84
2021/06/13 08:19:21;;;;;;;19.23;3.40;;;19.20;99.90;;;;;;6311571;22;20472;-85
2021/06/13 08:21:49;;;;;;;34.23;4.40;;;19.20;99.90;;;;;;6311280;22;20408;-85
2021/06/13 08:24:16;;;;;;;18.20;4.13;;;19.10;99.90;;;;;;6313952;22;20445;-84
2021/06/13 08:26:43;;;;;;;44.90;6.70;;;19.20;99.90;;;;;;6314238;22;20391;-84
2021/06/13 08:29:10;;;;;;;433.87;406.97;;;19.30;99.90;;;;;;6314019;22;20413;-84
2021/06/13 08:31:37;;;;;;;67.70;60.73;;;19.60;99.90;;;;;;6315761;22;20481;-83
2021/06/13 08:34:04;;;;;;;12.57;3.90;;;19.40;99.90;;;;;;6310534;22;20447;-85
2021/06/13 08:36:33;;;;;;;19.27;4.40;;;19.40;99.90;;;;;;6313505;22;20402;-85
2021/06/13 08:39:01;;;;;;;21.23;4.60;;;19.60;99.90;;;;;;6310498;22;20420;-85
2021/06/13 08:41:28;;;;;;;9.30;3.43;;;19.80;99.90;;;;;;6311818;22;20440;-84
2021/06/13 08:43:55;;;;;;;9.60;4.10;;;20.00;99.90;;;;;;6309533;22;21087;-84
2021/06/13 08:46:23;;;;;;;14.20;4.40;;;19.90;99.90;;;;;;6311667;22;20414;-85
2021/06/13 08:48:51;;;;;;;11.30;3.43;;;20.20;99.90;;;;;;6312851;22;20414;-84
2021/06/13 08:51:19;;;;;;;45.73;25.97;;;20.40;99.90;;;;;;6313415;22;20406;-85
2021/06/13 08:53:50;;;;;;;9.43;3.70;;;20.50;99.90;;;;;;6309761;22;20456;-85
2021/06/13 08:56:18;;;;;;;8.27;3.30;;;20.80;99.90;;;;;;6313285;22;20398;-84
2021/06/13 08:58:45;;;;;;;13.20;4.37;;;20.90;99.90;;;;;;6314381;22;20823;-85
2021/06/13 09:01:13;;;;;;;9.90;4.10;;;20.90;99.90;;;;;;6314661;22;20752;-84
2021/06/13 09:03:40;;;;;;;11.37;3.97;;;20.80;99.90;;;;;;6313323;22;20444;-84
2021/06/13 09:06:08;;;;;;;11.50;4.33;;;21.00;99.90;;;;;;6313298;22;20398;-84
2021/06/13 09:08:36;;;;;;;9.83;3.70;;;21.10;99.90;;;;;;6311205;22;20421;-84
2021/06/13 09:11:06;;;;;;;9.53;4.00;;;21.40;99.90;;;;;;6309810;22;20480;-83
2021/06/13 09:13:34;;;;;;;11.50;3.50;;;21.60;99.90;;;;;;6314508;22;20476;-82
2021/06/13 09:16:04;;;;;;;9.87;3.43;;;21.70;99.90;;;;;;6313685;22;20414;-84
2021/06/13 09:18:36;;;;;;;9.60;3.67;;;21.80;99.90;;;;;;6313296;22;20434;-83
2021/06/13 09:21:04;;;;;;;8.93;3.80;;;22.00;99.90;;;;;;6312950;22;20435;-82
2021/06/13 09:23:35;;;;;;;10.33;3.60;;;22.10;99.90;;;;;;6307345;22;20410;-83
2021/06/13 09:26:08;;;;;;;10.57;3.80;;;22.30;99.90;;;;;;6310556;22;20448;-86
2021/06/13 09:28:37;;;;;;;8.63;3.60;;;22.50;99.90;;;;;;6308885;22;20845;-85
2021/06/13 09:31:05;;;;;;;9.40;3.90;;;22.50;99.90;;;;;;6308449;22;21015;-85
2021/06/13 09:33:34;;;;;;;8.77;3.87;;;22.70;99.90;;;;;;6312261;22;20473;-85
2021/06/13 09:36:06;;;;;;;7.60;3.37;;;22.70;99.90;;;;;;6308750;22;20414;-86
2021/06/13 09:38:37;;;;;;;9.20;3.90;;;22.80;99.90;;;;;;6309661;22;20386;-85
2021/06/13 09:41:10;;;;;;;9.13;4.23;;;23.00;99.90;;;;;;6309115;22;20418;-85
2021/06/13 09:43:39;;;;;;;8.40;3.97;;;23.10;99.90;;;;;;6313188;22;20425;-86
2021/06/13 09:46:08;;;;;;;7.87;4.33;;;23.20;99.90;;;;;;6312793;22;20441;-84
2021/06/13 09:48:37;;;;;;;8.13;3.63;;;23.40;99.90;;;;;;6314292;22;20402;-86
2021/06/13 09:51:06;;;;;;;7.87;3.83;;;23.50;99.90;;;;;;6314674;22;20405;-85
2021/06/13 09:53:37;;;;;;;8.97;3.80;;;23.80;99.90;;;;;;6311938;22;20472;-86
2021/06/13 09:56:11;;;;;;;9.60;3.90;;;24.00;99.90;;;;;;6313302;22;20418;-85
2021/06/13 09:58:48;;;;;;;7.87;3.63;;;23.70;99.90;;;;;;6313510;22;20768;-86
2021/06/13 10:01:16;;;;;;;9.37;3.93;;;23.90;99.90;;;;;;6314344;22;20991;-86
2021/06/13 10:03:46;;;;;;;11.30;3.93;;;24.00;99.90;;;;;;6311525;22;20461;-83
2021/06/13 10:06:14;;;;;;;9.50;3.57;;;24.10;99.90;;;;;;6311959;22;20394;-86
2021/06/13 10:08:42;;;;;;;10.57;3.70;;;24.50;99.90;;;;;;6312275;22;21150;-83
2021/06/13 10:11:11;;;;;;;11.03;4.20;;;24.80;99.90;;;;;;6311991;22;20788;-84
2021/06/13 10:13:57;;;;;;;7.60;3.67;;;24.90;99.90;;;;;;6311480;22;20510;-84
2021/06/13 10:16:44;;;;;;;19.27;4.47;;;25.20;99.90;;;;;;6312860;22;20416;-85
2021/06/13 10:19:15;;;;;;;8.90;4.47;;;25.60;99.90;;;;;;6314270;22;20485;-84
2021/06/13 10:21:48;;;;;;;8.27;4.50;;;25.70;99.50;;;;;;6313157;22;20410;-85
2021/06/13 10:29:58;;;;;;;11.40;5.77;;;27.20;97.70;;;;;;6300903;22;20764;-85
2021/06/13 10:32:29;;;;;;;86.57;69.27;;;27.60;94.70;;;;;;6312178;22;20514;-84
2021/06/13 10:35:10;;;;;;;15.07;11.80;;;27.10;92.40;;;;;;6311006;22;21011;-84
2021/06/13 10:37:37;;;;;;;11.40;8.43;;;27.40;90.60;;;;;;6311136;22;20489;-86
2021/06/13 10:40:09;;;;;;;48.60;41.87;;;27.70;92.70;;;;;;6309317;22;20409;-85
2021/06/13 10:42:45;;;;;;;8.00;4.27;;;27.80;92.90;;;;;;6311165;22;20501;-83
2021/06/13 10:45:19;;;;;;;8.73;4.03;;;28.00;95.10;;;;;;6311461;22;20806;-84
2021/06/13 10:48:04;;;;;;;14.50;11.60;;;28.50;93.20;;;;;;6312795;22;20743;-83
2021/06/13 10:53:33;;;;;;;19.10;12.00;;;29.20;90.80;;;;;;6297245;22;20445;-85
2021/06/13 10:56:04;;;;;;;9.20;4.30;;;29.50;81.40;;;;;;6312533;22;20765;-85
2021/06/13 10:58:50;;;;;;;9.03;4.57;;;29.80;78.50;;;;;;6313386;22;20390;-84
2021/06/13 11:01:27;;;;;;;10.40;5.97;;;30.10;73.90;;;;;;6313117;22;20406;-84
2021/06/13 11:04:02;;;;;;;15.07;7.17;;;29.40;73.70;;;;;;6312523;22;20425;-84
2021/06/13 11:06:51;;;;;;;24.93;16.37;;;28.60;76.30;;;;;;6314434;22;20436;-83
2021/06/13 11:09:18;;;;;;;9.03;4.50;;;28.20;85.60;;;;;;6334458;22;20383;-84
2021/06/13 11:11:47;;;;;;;7.20;3.60;;;28.30;86.30;;;;;;6334096;22;20469;-85
2021/06/13 11:14:26;;;;;;;14.77;8.67;;;28.10;84.30;;;;;;6328917;22;20456;-83
2021/06/13 11:16:53;;;;;;;19.97;17.20;;;27.90;86.90;;;;;;6320097;22;20425;-82
2021/06/13 11:19:30;;;;;;;8.23;4.00;;;27.80;82.80;;;;;;6319768;22;20477;-83
2021/06/13 11:22:34;;;;;;;9.07;3.20;;;28.10;74.70;;;;;;6320167;22;20859;-84
2021/06/13 11:25:01;;;;;;;9.93;3.37;;;28.00;81.60;;;;;;6319857;22;20519;-83
2021/06/13 11:27:32;;;;;;;8.77;3.37;;;28.60;80.00;;;;;;6324964;22;20398;-82
2021/06/13 11:30:02;;;;;;;7.37;3.63;;;28.90;76.30;;;;;;6325089;22;20390;-81
2021/06/13 11:32:51;;;;;;;8.80;4.17;;;29.20;80.50;;;;;;6325244;22;20405;-82
2021/06/13 11:35:30;;;;;;;10.10;3.90;;;29.60;81.00;;;;;;6323668;22;20425;-84
2021/06/13 11:38:26;;;;;;;8.90;4.27;;;29.80;74.70;;;;;;6324567;22;20429;-83
2021/06/13 11:40:56;;;;;;;9.17;3.30;;;29.90;74.90;;;;;;6330603;22;20416;-83
2021/06/13 11:43:25;;;;;;;7.30;3.60;;;30.60;73.60;;;;;;6321070;22;20437;-83
2021/06/13 11:45:56;;;;;;;8.47;3.80;;;30.90;69.90;;;;;;6322472;22;20459;-82
2021/06/13 11:48:26;;;;;;;9.00;3.40;;;31.00;72.20;;;;;;6321778;22;20876;-83
2021/06/13 11:51:11;;;;;;;11.13;4.07;;;31.90;70.90;;;;;;6322527;22;20409;-83
2021/06/13 11:53:56;;;;;;;8.00;3.70;;;32.10;69.90;;;;;;6321674;22;20458;-83
2021/06/13 11:56:46;;;;;;;9.33;3.83;;;32.50;67.50;;;;;;6323130;22;20398;-82
2021/06/13 11:59:15;;;;;;;7.27;3.70;;;32.90;59.20;;;;;;6322379;22;20426;-83
2021/06/13 12:01:47;;;;;;;9.90;4.23;;;33.50;68.00;;;;;;6322357;22;20402;-84
2021/06/13 12:04:15;;;;;;;7.23;3.60;;;33.90;65.80;;;;;;6322023;22;20429;-82
2021/06/13 12:06:43;;;;;;;9.70;4.20;;;34.50;60.30;;;;;;6319506;22;20444;-83
2021/06/13 12:09:11;;;;;;;9.30;3.97;;;34.80;63.30;;;;;;6320147;22;20433;-83
2021/06/13 12:11:44;;;;;;;7.90;4.10;;;35.00;62.10;;;;;;6317619;22;20405;-83
2021/06/13 12:14:23;;;;;;;8.90;4.03;;;35.40;51.20;;;;;;6318841;22;20473;-83
2021/06/13 12:16:53;;;;;;;7.80;3.90;;;35.20;58.70;;;;;;6324582;22;20456;-83
2021/06/13 12:19:33;;;;;;;7.30;3.93;;;35.80;51.60;;;;;;6319143;22;20413;-83
2021/06/13 12:22:20;;;;;;;6.60;3.10;;;35.80;52.70;;;;;;6318268;22;20948;-84
2021/06/13 12:27:35;;;;;;;7.00;3.70;;;37.50;55.00;;;;;;6279719;22;20887;-83
2021/06/13 12:30:07;;;;;;;7.00;3.43;;;37.90;56.00;;;;;;6318922;22;20489;-83
2021/06/13 12:32:36;;;;;;;7.83;3.50;;;38.90;50.20;;;;;;6320556;22;20720;-83
2021/06/13 12:35:09;;;;;;;7.83;3.53;;;39.00;48.90;;;;;;6322316;22;20449;-83
2021/06/13 12:37:36;;;;;;;7.33;3.73;;;39.60;49.50;;;;;;6324571;22;20448;-83
2021/06/13 12:40:06;;;;;;;7.63;4.07;;;39.60;46.40;;;;;;6324264;22;20445;-83
2021/06/13 12:42:34;;;;;;;7.40;3.57;;;39.80;44.20;;;;;;6324291;22;20402;-83
2021/06/13 12:45:04;;;;;;;7.27;3.63;;;39.50;42.50;;;;;;6321660;22;20433;-84
2021/06/13 12:47:31;;;;;;;8.43;4.22;;;39.00;44.50;;;;;;6321357;22;20417;-85
2021/06/13 12:50:00;;;;;;;8.07;3.60;;;39.60;48.50;;;;;;6320438;22;20215;-83
2021/06/13 12:52:29;;;;;;;7.83;3.60;;;39.50;43.20;;;;;;6321374;22;20406;-83
2021/06/13 12:54:58;;;;;;;6.23;2.90;;;39.80;43.40;;;;;;6321821;22;20517;-82
2021/06/13 12:57:26;;;;;;;7.20;3.60;;;40.80;43.00;;;;;;6320648;22;20432;-85
2021/06/13 12:59:54;;;;;;;8.03;3.20;;;41.10;47.20;;;;;;6321807;22;20445;-83